sensor_id;sensor_type;location;lat;lon;timestamp;P1;durP1;ratioP1;P2;durP2;ratioP2
31746;SDS011;18319;48.974;8.462;2023-05-07T00:00:21;3.80;;;1.58;;
31746;SDS011;18319;48.974;8.462;2023-05-07T00:02:48;1.60;;;1.50;;
31746;SDS011;18319;48.974;8.462;2023-05-07T00:05:16;1.73;;;1.63;;
31746;SDS011;18319;48.974;8.462;2023-05-07T00:07:43;1.67;;;1.58;;
31746;SDS011;18319;48.974;8.462;2023-05-07T00:10:10;1.75;;;1.70;;
31746;SDS011;18319;48.974;8.462;2023-05-07T00:12:37;2.28;;;2.03;;
31746;SDS011;18319;48.974;8.462;2023-05-07T00:15:05;2.03;;;1.92;;
31746;SDS011;18319;48.974;8.462;2023-05-07T00:17:33;2.17;;;1.50;;
31746;SDS011;18319;48.974;8.462;2023-05-07T00:20:00;1.67;;;1.58;;
31746;SDS011;18319;48.974;8.462;2023-05-07T00:22:28;2.33;;;1.80;;
31746;SDS011;18319;48.974;8.462;2023-05-07T00:24:56;2.42;;;1.83;;
31746;SDS011;18319;48.974;8.462;2023-05-07T00:27:22;3.38;;;1.58;;
31746;SDS011;18319;48.974;8.462;2023-05-07T00:29:49;1.95;;;1.83;;
31746;SDS011;18319;48.974;8.462;2023-05-07T00:32:16;2.60;;;1.80;;
31746;SDS011;18319;48.974;8.462;2023-05-07T00:34:43;1.95;;;1.83;;
31746;SDS011;18319;48.974;8.462;2023-05-07T00:37:10;4.82;;;1.50;;
31746;SDS011;18319;48.974;8.462;2023-05-07T00:39:38;1.38;;;1.27;;
31746;SDS011;18319;48.974;8.462;2023-05-07T00:42:05;2.10;;;2.00;;
31746;SDS011;18319;48.974;8.462;2023-05-07T00:44:31;2.72;;;1.70;;
31746;SDS011;18319;48.974;8.462;2023-05-07T00:46:58;1.90;;;1.80;;
31746;SDS011;18319;48.974;8.462;2023-05-07T00:49:31;2.75;;;1.50;;
31746;SDS011;18319;48.974;8.462;2023-05-07T00:52:03;2.30;;;1.73;;
31746;SDS011;18319;48.974;8.462;2023-05-07T00:54:31;2.38;;;1.60;;
31746;SDS011;18319;48.974;8.462;2023-05-07T00:57:01;1.90;;;1.65;;
31746;SDS011;18319;48.974;8.462;2023-05-07T00:59:28;2.05;;;1.52;;
31746;SDS011;18319;48.974;8.462;2023-05-07T01:01:56;1.63;;;1.52;;
31746;SDS011;18319;48.974;8.462;2023-05-07T01:04:23;1.67;;;1.58;;
31746;SDS011;18319;48.974;8.462;2023-05-07T01:06:50;2.13;;;1.58;;
31746;SDS011;18319;48.974;8.462;2023-05-07T01:09:17;1.58;;;1.50;;
31746;SDS011;18319;48.974;8.462;2023-05-07T01:11:46;1.70;;;1.60;;
31746;SDS011;18319;48.974;8.462;2023-05-07T01:14:15;1.83;;;1.73;;
31746;SDS011;18319;48.974;8.462;2023-05-07T01:16:42;1.70;;;1.60;;
31746;SDS011;18319;48.974;8.462;2023-05-07T01:19:09;1.70;;;1.60;;
31746;SDS011;18319;48.974;8.462;2023-05-07T01:21:38;3.25;;;1.67;;
31746;SDS011;18319;48.974;8.462;2023-05-07T01:24:12;1.60;;;1.50;;
31746;SDS011;18319;48.974;8.462;2023-05-07T01:26:40;1.85;;;1.75;;
31746;SDS011;18319;48.974;8.462;2023-05-07T01:29:08;2.13;;;1.73;;
31746;SDS011;18319;48.974;8.462;2023-05-07T01:31:34;1.83;;;1.73;;
31746;SDS011;18319;48.974;8.462;2023-05-07T01:34:03;1.73;;;1.63;;
31746;SDS011;18319;48.974;8.462;2023-05-07T01:36:31;2.05;;;1.85;;
31746;SDS011;18319;48.974;8.462;2023-05-07T01:38:58;1.95;;;1.60;;
31746;SDS011;18319;48.974;8.462;2023-05-07T01:41:27;3.45;;;1.88;;
31746;SDS011;18319;48.974;8.462;2023-05-07T01:43:54;2.05;;;1.95;;
31746;SDS011;18319;48.974;8.462;2023-05-07T01:46:22;1.48;;;1.48;;
31746;SDS011;18319;48.974;8.462;2023-05-07T01:48:50;2.03;;;1.45;;
31746;SDS011;18319;48.974;8.462;2023-05-07T01:51:17;1.60;;;1.50;;
31746;SDS011;18319;48.974;8.462;2023-05-07T01:53:44;1.77;;;1.67;;
31746;SDS011;18319;48.974;8.462;2023-05-07T01:56:15;1.40;;;1.30;;
31746;SDS011;18319;48.974;8.462;2023-05-07T01:58:44;1.98;;;1.40;;
31746;SDS011;18319;48.974;8.462;2023-05-07T02:01:10;4.93;;;1.60;;
31746;SDS011;18319;48.974;8.462;2023-05-07T02:03:37;1.48;;;1.38;;
31746;SDS011;18319;48.974;8.462;2023-05-07T02:06:04;4.15;;;1.58;;
31746;SDS011;18319;48.974;8.462;2023-05-07T02:08:31;1.40;;;1.40;;
31746;SDS011;18319;48.974;8.462;2023-05-07T02:10:58;2.67;;;1.60;;
31746;SDS011;18319;48.974;8.462;2023-05-07T02:13:26;3.20;;;1.60;;
31746;SDS011;18319;48.974;8.462;2023-05-07T02:15:56;1.80;;;1.70;;
31746;SDS011;18319;48.974;8.462;2023-05-07T02:18:23;1.98;;;1.50;;
31746;SDS011;18319;48.974;8.462;2023-05-07T02:20:50;2.85;;;1.95;;
31746;SDS011;18319;48.974;8.462;2023-05-07T02:23:16;1.15;;;1.00;;
31746;SDS011;18319;48.974;8.462;2023-05-07T02:25:43;1.50;;;1.40;;
31746;SDS011;18319;48.974;8.462;2023-05-07T02:28:11;1.40;;;1.35;;
31746;SDS011;18319;48.974;8.462;2023-05-07T02:30:37;1.67;;;1.40;;
31746;SDS011;18319;48.974;8.462;2023-05-07T02:33:06;2.53;;;1.35;;
31746;SDS011;18319;48.974;8.462;2023-05-07T02:35:33;2.22;;;1.25;;
31746;SDS011;18319;48.974;8.462;2023-05-07T02:38:00;3.60;;;1.52;;
31746;SDS011;18319;48.974;8.462;2023-05-07T02:40:27;1.70;;;1.60;;
31746;SDS011;18319;48.974;8.462;2023-05-07T02:42:53;1.63;;;1.45;;
31746;SDS011;18319;48.974;8.462;2023-05-07T02:45:20;2.10;;;2.00;;
31746;SDS011;18319;48.974;8.462;2023-05-07T02:47:47;3.08;;;1.80;;
31746;SDS011;18319;48.974;8.462;2023-05-07T02:50:15;1.90;;;1.80;;
31746;SDS011;18319;48.974;8.462;2023-05-07T02:52:42;1.85;;;1.75;;
31746;SDS011;18319;48.974;8.462;2023-05-07T02:55:09;1.80;;;1.70;;
31746;SDS011;18319;48.974;8.462;2023-05-07T02:57:35;2.38;;;1.75;;
31746;SDS011;18319;48.974;8.462;2023-05-07T03:00:10;1.52;;;1.42;;
31746;SDS011;18319;48.974;8.462;2023-05-07T03:02:37;1.30;;;1.20;;
31746;SDS011;18319;48.974;8.462;2023-05-07T03:05:05;1.83;;;1.73;;
31746;SDS011;18319;48.974;8.462;2023-05-07T03:07:34;3.13;;;1.40;;
31746;SDS011;18319;48.974;8.462;2023-05-07T03:10:01;2.22;;;1.90;;
31746;SDS011;18319;48.974;8.462;2023-05-07T03:12:27;2.10;;;2.00;;
31746;SDS011;18319;48.974;8.462;2023-05-07T03:14:54;1.88;;;1.77;;
31746;SDS011;18319;48.974;8.462;2023-05-07T03:17:21;1.48;;;1.38;;
31746;SDS011;18319;48.974;8.462;2023-05-07T03:19:48;3.72;;;1.88;;
31746;SDS011;18319;48.974;8.462;2023-05-07T03:22:15;1.67;;;1.58;;
31746;SDS011;18319;48.974;8.462;2023-05-07T03:24:43;3.20;;;1.83;;
31746;SDS011;18319;48.974;8.462;2023-05-07T03:27:09;1.80;;;1.70;;
31746;SDS011;18319;48.974;8.462;2023-05-07T03:29:36;1.98;;;1.60;;
31746;SDS011;18319;48.974;8.462;2023-05-07T03:32:03;2.00;;;1.80;;
31746;SDS011;18319;48.974;8.462;2023-05-07T03:34:30;4.18;;;1.95;;
31746;SDS011;18319;48.974;8.462;2023-05-07T03:36:57;1.80;;;1.70;;
31746;SDS011;18319;48.974;8.462;2023-05-07T03:39:24;1.60;;;1.50;;
31746;SDS011;18319;48.974;8.462;2023-05-07T03:41:52;3.47;;;1.33;;
31746;SDS011;18319;48.974;8.462;2023-05-07T03:44:19;2.83;;;1.50;;
31746;SDS011;18319;48.974;8.462;2023-05-07T03:46:45;1.52;;;1.42;;
31746;SDS011;18319;48.974;8.462;2023-05-07T03:49:12;3.90;;;1.55;;
31746;SDS011;18319;48.974;8.462;2023-05-07T03:51:39;1.63;;;1.52;;
31746;SDS011;18319;48.974;8.462;2023-05-07T03:54:07;1.73;;;1.63;;
31746;SDS011;18319;48.974;8.462;2023-05-07T03:56:34;1.73;;;1.63;;
31746;SDS011;18319;48.974;8.462;2023-05-07T03:59:02;3.25;;;1.75;;
31746;SDS011;18319;48.974;8.462;2023-05-07T04:01:29;2.00;;;1.90;;
31746;SDS011;18319;48.974;8.462;2023-05-07T04:03:56;3.72;;;1.67;;
31746;SDS011;18319;48.974;8.462;2023-05-07T04:06:22;1.98;;;1.88;;
31746;SDS011;18319;48.974;8.462;2023-05-07T04:08:49;4.50;;;1.60;;
31746;SDS011;18319;48.974;8.462;2023-05-07T04:11:16;1.83;;;1.73;;
31746;SDS011;18319;48.974;8.462;2023-05-07T04:13:43;1.70;;;1.60;;
31746;SDS011;18319;48.974;8.462;2023-05-07T04:16:11;2.97;;;1.90;;
31746;SDS011;18319;48.974;8.462;2023-05-07T04:18:38;1.60;;;1.50;;
31746;SDS011;18319;48.974;8.462;2023-05-07T04:21:05;2.50;;;2.20;;
31746;SDS011;18319;48.974;8.462;2023-05-07T04:23:31;2.72;;;1.88;;
31746;SDS011;18319;48.974;8.462;2023-05-07T04:25:58;1.75;;;1.65;;
31746;SDS011;18319;48.974;8.462;2023-05-07T04:28:25;2.80;;;1.80;;
31746;SDS011;18319;48.974;8.462;2023-05-07T04:30:52;1.60;;;1.50;;
31746;SDS011;18319;48.974;8.462;2023-05-07T04:33:20;2.72;;;1.58;;
31746;SDS011;18319;48.974;8.462;2023-05-07T04:35:47;3.25;;;1.70;;
31746;SDS011;18319;48.974;8.462;2023-05-07T04:38:14;3.20;;;1.60;;
31746;SDS011;18319;48.974;8.462;2023-05-07T04:40:41;1.73;;;1.63;;
31746;SDS011;18319;48.974;8.462;2023-05-07T04:43:08;3.38;;;1.67;;
31746;SDS011;18319;48.974;8.462;2023-05-07T04:45:35;3.60;;;1.77;;
31746;SDS011;18319;48.974;8.462;2023-05-07T04:48:01;1.70;;;1.60;;
31746;SDS011;18319;48.974;8.462;2023-05-07T04:50:30;1.85;;;1.70;;
31746;SDS011;18319;48.974;8.462;2023-05-07T04:52:57;4.47;;;1.80;;
31746;SDS011;18319;48.974;8.462;2023-05-07T04:55:23;1.83;;;1.73;;
31746;SDS011;18319;48.974;8.462;2023-05-07T04:57:51;1.75;;;1.65;;
31746;SDS011;18319;48.974;8.462;2023-05-07T05:00:19;1.88;;;1.77;;
31746;SDS011;18319;48.974;8.462;2023-05-07T05:02:45;1.60;;;1.50;;
31746;SDS011;18319;48.974;8.462;2023-05-07T05:05:12;1.65;;;1.55;;
31746;SDS011;18319;48.974;8.462;2023-05-07T05:07:40;2.15;;;1.67;;
31746;SDS011;18319;48.974;8.462;2023-05-07T05:10:07;1.92;;;1.58;;
31746;SDS011;18319;48.974;8.462;2023-05-07T05:12:34;1.95;;;1.70;;
31746;SDS011;18319;48.974;8.462;2023-05-07T05:15:01;1.85;;;1.75;;
31746;SDS011;18319;48.974;8.462;2023-05-07T05:17:27;2.13;;;1.67;;
31746;SDS011;18319;48.974;8.462;2023-05-07T05:19:54;2.45;;;1.70;;
31746;SDS011;18319;48.974;8.462;2023-05-07T05:22:21;2.90;;;2.20;;
31746;SDS011;18319;48.974;8.462;2023-05-07T05:24:49;2.40;;;2.20;;
31746;SDS011;18319;48.974;8.462;2023-05-07T05:27:16;2.05;;;1.70;;
31746;SDS011;18319;48.974;8.462;2023-05-07T05:29:42;2.28;;;1.70;;
31746;SDS011;18319;48.974;8.462;2023-05-07T05:32:09;2.13;;;1.77;;
31746;SDS011;18319;48.974;8.462;2023-05-07T05:34:36;2.20;;;1.80;;
31746;SDS011;18319;48.974;8.462;2023-05-07T05:37:03;2.22;;;2.13;;
31746;SDS011;18319;48.974;8.462;2023-05-07T05:39:29;1.88;;;1.70;;
31746;SDS011;18319;48.974;8.462;2023-05-07T05:41:57;2.88;;;2.67;;
31746;SDS011;18319;48.974;8.462;2023-05-07T05:44:24;2.42;;;2.33;;
31746;SDS011;18319;48.974;8.462;2023-05-07T05:46:51;3.35;;;2.45;;
31746;SDS011;18319;48.974;8.462;2023-05-07T05:49:20;3.10;;;2.90;;
31746;SDS011;18319;48.974;8.462;2023-05-07T05:51:46;5.47;;;2.67;;
31746;SDS011;18319;48.974;8.462;2023-05-07T05:54:13;4.18;;;3.00;;
31746;SDS011;18319;48.974;8.462;2023-05-07T05:56:41;3.00;;;2.80;;
31746;SDS011;18319;48.974;8.462;2023-05-07T05:59:10;3.13;;;2.88;;
31746;SDS011;18319;48.974;8.462;2023-05-07T06:01:36;3.05;;;2.78;;
31746;SDS011;18319;48.974;8.462;2023-05-07T06:04:03;3.28;;;2.97;;
31746;SDS011;18319;48.974;8.462;2023-05-07T06:06:30;3.13;;;2.80;;
31746;SDS011;18319;48.974;8.462;2023-05-07T06:08:57;3.95;;;3.67;;
31746;SDS011;18319;48.974;8.462;2023-05-07T06:11:24;2.97;;;2.78;;
31746;SDS011;18319;48.974;8.462;2023-05-07T06:13:52;3.05;;;2.50;;
31746;SDS011;18319;48.974;8.462;2023-05-07T06:16:20;3.42;;;2.90;;
31746;SDS011;18319;48.974;8.462;2023-05-07T06:18:47;2.63;;;2.50;;
31746;SDS011;18319;48.974;8.462;2023-05-07T06:21:14;2.63;;;2.53;;
31746;SDS011;18319;48.974;8.462;2023-05-07T06:23:41;2.85;;;2.65;;
31746;SDS011;18319;48.974;8.462;2023-05-07T06:26:07;3.65;;;2.25;;
31746;SDS011;18319;48.974;8.462;2023-05-07T06:28:34;2.95;;;2.58;;
31746;SDS011;18319;48.974;8.462;2023-05-07T06:31:11;3.63;;;2.03;;
31746;SDS011;18319;48.974;8.462;2023-05-07T06:33:40;2.40;;;2.20;;
31746;SDS011;18319;48.974;8.462;2023-05-07T06:36:07;3.38;;;2.13;;
31746;SDS011;18319;48.974;8.462;2023-05-07T06:38:33;2.30;;;2.20;;
31746;SDS011;18319;48.974;8.462;2023-05-07T06:41:00;7.72;;;4.47;;
31746;SDS011;18319;48.974;8.462;2023-05-07T06:43:27;1.88;;;1.77;;
31746;SDS011;18319;48.974;8.462;2023-05-07T06:45:54;2.92;;;1.95;;
31746;SDS011;18319;48.974;8.462;2023-05-07T06:48:20;1.45;;;1.42;;
31746;SDS011;18319;48.974;8.462;2023-05-07T06:50:48;1.80;;;1.70;;
31746;SDS011;18319;48.974;8.462;2023-05-07T06:53:15;3.20;;;1.70;;
31746;SDS011;18319;48.974;8.462;2023-05-07T06:55:42;3.10;;;1.70;;
31746;SDS011;18319;48.974;8.462;2023-05-07T06:58:09;1.80;;;1.70;;
31746;SDS011;18319;48.974;8.462;2023-05-07T07:00:36;1.92;;;1.73;;
31746;SDS011;18319;48.974;8.462;2023-05-07T07:03:03;4.22;;;1.65;;
31746;SDS011;18319;48.974;8.462;2023-05-07T07:05:29;2.17;;;2.08;;
31746;SDS011;18319;48.974;8.462;2023-05-07T07:07:57;2.38;;;2.00;;
31746;SDS011;18319;48.974;8.462;2023-05-07T07:10:24;1.88;;;1.77;;
31746;SDS011;18319;48.974;8.462;2023-05-07T07:12:51;3.35;;;1.70;;
31746;SDS011;18319;48.974;8.462;2023-05-07T07:15:19;3.20;;;2.42;;
31746;SDS011;18319;48.974;8.462;2023-05-07T07:17:46;2.45;;;1.77;;
31746;SDS011;18319;48.974;8.462;2023-05-07T07:20:14;1.60;;;1.52;;
31746;SDS011;18319;48.974;8.462;2023-05-07T07:22:41;2.22;;;2.03;;
31746;SDS011;18319;48.974;8.462;2023-05-07T07:25:09;3.63;;;2.08;;
31746;SDS011;18319;48.974;8.462;2023-05-07T07:27:37;2.50;;;1.90;;
31746;SDS011;18319;48.974;8.462;2023-05-07T07:30:05;1.80;;;1.70;;
31746;SDS011;18319;48.974;8.462;2023-05-07T07:32:32;2.00;;;1.90;;
31746;SDS011;18319;48.974;8.462;2023-05-07T07:35:00;3.45;;;1.50;;
31746;SDS011;18319;48.974;8.462;2023-05-07T07:37:27;1.98;;;1.60;;
31746;SDS011;18319;48.974;8.462;2023-05-07T07:39:54;1.33;;;1.33;;
31746;SDS011;18319;48.974;8.462;2023-05-07T07:42:23;1.52;;;1.45;;
31746;SDS011;18319;48.974;8.462;2023-05-07T07:44:49;1.88;;;1.45;;
31746;SDS011;18319;48.974;8.462;2023-05-07T07:47:16;1.42;;;1.30;;
31746;SDS011;18319;48.974;8.462;2023-05-07T07:49:43;1.58;;;1.48;;
31746;SDS011;18319;48.974;8.462;2023-05-07T07:52:10;1.45;;;1.23;;
31746;SDS011;18319;48.974;8.462;2023-05-07T07:54:37;1.55;;;1.45;;
31746;SDS011;18319;48.974;8.462;2023-05-07T07:57:04;1.98;;;1.52;;
31746;SDS011;18319;48.974;8.462;2023-05-07T07:59:32;3.22;;;1.30;;
31746;SDS011;18319;48.974;8.462;2023-05-07T08:01:59;1.70;;;1.60;;
31746;SDS011;18319;48.974;8.462;2023-05-07T08:04:26;1.52;;;1.42;;
31746;SDS011;18319;48.974;8.462;2023-05-07T08:06:52;2.17;;;2.05;;
31746;SDS011;18319;48.974;8.462;2023-05-07T08:09:21;1.85;;;1.75;;
31746;SDS011;18319;48.974;8.462;2023-05-07T08:11:47;3.88;;;2.15;;
31746;SDS011;18319;48.974;8.462;2023-05-07T08:14:14;1.83;;;1.63;;
31746;SDS011;18319;48.974;8.462;2023-05-07T08:16:43;1.65;;;1.55;;
31746;SDS011;18319;48.974;8.462;2023-05-07T08:19:10;1.60;;;1.40;;
31746;SDS011;18319;48.974;8.462;2023-05-07T08:21:38;3.60;;;1.90;;
31746;SDS011;18319;48.974;8.462;2023-05-07T08:24:05;1.55;;;1.45;;
31746;SDS011;18319;48.974;8.462;2023-05-07T08:26:32;1.80;;;1.70;;
31746;SDS011;18319;48.974;8.462;2023-05-07T08:29:00;2.00;;;1.90;;
31746;SDS011;18319;48.974;8.462;2023-05-07T08:31:27;3.45;;;1.98;;
31746;SDS011;18319;48.974;8.462;2023-05-07T08:33:56;8.85;;;1.70;;
31746;SDS011;18319;48.974;8.462;2023-05-07T08:36:23;2.65;;;1.90;;
31746;SDS011;18319;48.974;8.462;2023-05-07T08:38:50;2.05;;;1.83;;
31746;SDS011;18319;48.974;8.462;2023-05-07T08:41:17;1.65;;;1.55;;
31746;SDS011;18319;48.974;8.462;2023-05-07T08:43:46;1.75;;;1.45;;
31746;SDS011;18319;48.974;8.462;2023-05-07T08:46:16;1.55;;;1.45;;
31746;SDS011;18319;48.974;8.462;2023-05-07T08:48:44;2.55;;;1.88;;
31746;SDS011;18319;48.974;8.462;2023-05-07T08:51:15;2.78;;;1.73;;
31746;SDS011;18319;48.974;8.462;2023-05-07T08:53:43;1.85;;;1.73;;
31746;SDS011;18319;48.974;8.462;2023-05-07T08:56:11;1.70;;;1.70;;
31746;SDS011;18319;48.974;8.462;2023-05-07T08:58:38;2.60;;;2.40;;
31746;SDS011;18319;48.974;8.462;2023-05-07T09:01:07;2.83;;;1.65;;
31746;SDS011;18319;48.974;8.462;2023-05-07T09:03:36;1.70;;;1.60;;
31746;SDS011;18319;48.974;8.462;2023-05-07T09:06:04;1.90;;;1.77;;
31746;SDS011;18319;48.974;8.462;2023-05-07T09:08:33;2.88;;;2.10;;
31746;SDS011;18319;48.974;8.462;2023-05-07T09:11:00;4.07;;;2.10;;
31746;SDS011;18319;48.974;8.462;2023-05-07T09:13:28;1.45;;;1.35;;
31746;SDS011;18319;48.974;8.462;2023-05-07T09:15:55;2.58;;;1.70;;
31746;SDS011;18319;48.974;8.462;2023-05-07T09:18:23;4.20;;;1.70;;
31746;SDS011;18319;48.974;8.462;2023-05-07T09:20:50;1.92;;;1.80;;
31746;SDS011;18319;48.974;8.462;2023-05-07T09:23:17;2.30;;;2.10;;
31746;SDS011;18319;48.974;8.462;2023-05-07T09:25:45;1.90;;;1.80;;
31746;SDS011;18319;48.974;8.462;2023-05-07T09:28:12;2.80;;;1.85;;
31746;SDS011;18319;48.974;8.462;2023-05-07T09:30:38;1.90;;;1.80;;
31746;SDS011;18319;48.974;8.462;2023-05-07T09:33:05;2.03;;;1.92;;
31746;SDS011;18319;48.974;8.462;2023-05-07T09:35:32;3.13;;;2.10;;
31746;SDS011;18319;48.974;8.462;2023-05-07T09:38:00;1.90;;;1.80;;
31746;SDS011;18319;48.974;8.462;2023-05-07T09:40:28;2.33;;;1.67;;
31746;SDS011;18319;48.974;8.462;2023-05-07T09:43:01;2.42;;;2.22;;
31746;SDS011;18319;48.974;8.462;2023-05-07T09:45:35;4.68;;;2.63;;
31746;SDS011;18319;48.974;8.462;2023-05-07T09:48:03;2.55;;;2.10;;
31746;SDS011;18319;48.974;8.462;2023-05-07T09:50:32;1.83;;;1.65;;
31746;SDS011;18319;48.974;8.462;2023-05-07T09:53:02;2.42;;;2.20;;
31746;SDS011;18319;48.974;8.462;2023-05-07T09:55:29;1.77;;;1.67;;
31746;SDS011;18319;48.974;8.462;2023-05-07T09:57:58;1.88;;;1.77;;
31746;SDS011;18319;48.974;8.462;2023-05-07T10:00:27;1.88;;;1.60;;
31746;SDS011;18319;48.974;8.462;2023-05-07T10:02:55;2.28;;;2.10;;
31746;SDS011;18319;48.974;8.462;2023-05-07T10:05:23;2.70;;;2.50;;
31746;SDS011;18319;48.974;8.462;2023-05-07T10:07:51;2.25;;;1.70;;
31746;SDS011;18319;48.974;8.462;2023-05-07T10:10:19;2.53;;;2.35;;
31746;SDS011;18319;48.974;8.462;2023-05-07T10:12:47;2.65;;;2.45;;
31746;SDS011;18319;48.974;8.462;2023-05-07T10:15:16;3.80;;;2.20;;
31746;SDS011;18319;48.974;8.462;2023-05-07T10:17:43;3.15;;;1.70;;
31746;SDS011;18319;48.974;8.462;2023-05-07T10:20:10;2.17;;;2.08;;
31746;SDS011;18319;48.974;8.462;2023-05-07T10:22:38;3.75;;;2.10;;
31746;SDS011;18319;48.974;8.462;2023-05-07T10:25:09;2.33;;;2.22;;
31746;SDS011;18319;48.974;8.462;2023-05-07T10:27:40;2.03;;;1.90;;
31746;SDS011;18319;48.974;8.462;2023-05-07T10:30:11;2.75;;;2.55;;
31746;SDS011;18319;48.974;8.462;2023-05-07T10:32:48;2.03;;;1.92;;
31746;SDS011;18319;48.974;8.462;2023-05-07T10:35:17;2.03;;;1.92;;
31746;SDS011;18319;48.974;8.462;2023-05-07T10:37:47;1.63;;;1.52;;
31746;SDS011;18319;48.974;8.462;2023-05-07T10:40:14;3.25;;;1.92;;
31746;SDS011;18319;48.974;8.462;2023-05-07T10:45:27;2.67;;;2.55;;
31746;SDS011;18319;48.974;8.462;2023-05-07T10:48:07;1.95;;;1.70;;
31746;SDS011;18319;48.974;8.462;2023-05-07T10:50:35;3.83;;;2.15;;
31746;SDS011;18319;48.974;8.462;2023-05-07T10:53:22;2.30;;;2.10;;
31746;SDS011;18319;48.974;8.462;2023-05-07T11:02:00;1.88;;;1.77;;
31746;SDS011;18319;48.974;8.462;2023-05-07T11:04:29;1.40;;;1.25;;
31746;SDS011;18319;48.974;8.462;2023-05-07T11:09:57;2.53;;;2.33;;
31746;SDS011;18319;48.974;8.462;2023-05-07T11:18:12;1.98;;;1.88;;
31746;SDS011;18319;48.974;8.462;2023-05-07T11:20:44;1.88;;;1.75;;
31746;SDS011;18319;48.974;8.462;2023-05-07T11:26:25;2.13;;;1.65;;
31746;SDS011;18319;48.974;8.462;2023-05-07T11:28:54;1.80;;;1.70;;
31746;SDS011;18319;48.974;8.462;2023-05-07T11:31:22;1.92;;;1.55;;
31746;SDS011;18319;48.974;8.462;2023-05-07T11:33:52;1.95;;;1.58;;
31746;SDS011;18319;48.974;8.462;2023-05-07T11:36:20;1.92;;;1.42;;
31746;SDS011;18319;48.974;8.462;2023-05-07T11:38:48;1.75;;;1.63;;
31746;SDS011;18319;48.974;8.462;2023-05-07T11:41:15;1.67;;;1.58;;
31746;SDS011;18319;48.974;8.462;2023-05-07T11:43:56;1.73;;;1.63;;
31746;SDS011;18319;48.974;8.462;2023-05-07T11:46:24;2.47;;;1.90;;
31746;SDS011;18319;48.974;8.462;2023-05-07T11:48:53;2.08;;;1.98;;
31746;SDS011;18319;48.974;8.462;2023-05-07T11:51:21;1.98;;;1.80;;
31746;SDS011;18319;48.974;8.462;2023-05-07T11:53:49;2.40;;;1.67;;
31746;SDS011;18319;48.974;8.462;2023-05-07T11:56:17;1.90;;;1.80;;
31746;SDS011;18319;48.974;8.462;2023-05-07T11:58:45;2.45;;;2.25;;
31746;SDS011;18319;48.974;8.462;2023-05-07T12:01:13;1.98;;;1.88;;
31746;SDS011;18319;48.974;8.462;2023-05-07T12:03:41;1.45;;;1.35;;
31746;SDS011;18319;48.974;8.462;2023-05-07T12:06:12;3.33;;;1.88;;
31746;SDS011;18319;48.974;8.462;2023-05-07T12:08:40;2.17;;;1.60;;
31746;SDS011;18319;48.974;8.462;2023-05-07T12:11:08;3.03;;;1.60;;
31746;SDS011;18319;48.974;8.462;2023-05-07T12:13:36;1.65;;;1.55;;
31746;SDS011;18319;48.974;8.462;2023-05-07T12:16:04;1.67;;;1.58;;
31746;SDS011;18319;48.974;8.462;2023-05-07T12:18:32;2.50;;;1.95;;
31746;SDS011;18319;48.974;8.462;2023-05-07T12:21:01;1.70;;;1.60;;
31746;SDS011;18319;48.974;8.462;2023-05-07T12:23:29;2.30;;;2.10;;
31746;SDS011;18319;48.974;8.462;2023-05-07T12:25:56;2.08;;;1.80;;
31746;SDS011;18319;48.974;8.462;2023-05-07T12:28:23;2.17;;;1.83;;
31746;SDS011;18319;48.974;8.462;2023-05-07T12:30:50;1.40;;;1.40;;
31746;SDS011;18319;48.974;8.462;2023-05-07T12:33:18;2.55;;;2.10;;
31746;SDS011;18319;48.974;8.462;2023-05-07T12:35:47;2.00;;;1.90;;
31746;SDS011;18319;48.974;8.462;2023-05-07T12:38:14;2.13;;;1.80;;
31746;SDS011;18319;48.974;8.462;2023-05-07T12:40:45;1.52;;;1.42;;
31746;SDS011;18319;48.974;8.462;2023-05-07T12:43:16;2.25;;;2.15;;
31746;SDS011;18319;48.974;8.462;2023-05-07T12:45:44;1.77;;;1.77;;
31746;SDS011;18319;48.974;8.462;2023-05-07T12:48:12;2.05;;;1.85;;
31746;SDS011;18319;48.974;8.462;2023-05-07T12:50:39;2.03;;;1.50;;
31746;SDS011;18319;48.974;8.462;2023-05-07T12:53:07;2.45;;;1.83;;
31746;SDS011;18319;48.974;8.462;2023-05-07T12:55:42;3.03;;;1.73;;
31746;SDS011;18319;48.974;8.462;2023-05-07T12:58:15;1.55;;;1.42;;
31746;SDS011;18319;48.974;8.462;2023-05-07T13:00:43;2.40;;;1.88;;
31746;SDS011;18319;48.974;8.462;2023-05-07T13:03:11;1.80;;;1.70;;
31746;SDS011;18319;48.974;8.462;2023-05-07T13:05:38;1.70;;;1.60;;
31746;SDS011;18319;48.974;8.462;2023-05-07T13:08:05;1.50;;;1.42;;
31746;SDS011;18319;48.974;8.462;2023-05-07T13:10:34;1.30;;;1.30;;
31746;SDS011;18319;48.974;8.462;2023-05-07T13:13:01;1.85;;;1.75;;
31746;SDS011;18319;48.974;8.462;2023-05-07T13:15:30;4.00;;;1.45;;
31746;SDS011;18319;48.974;8.462;2023-05-07T13:17:56;1.55;;;1.45;;
31746;SDS011;18319;48.974;8.462;2023-05-07T13:20:23;1.75;;;1.65;;
31746;SDS011;18319;48.974;8.462;2023-05-07T13:22:50;1.92;;;1.83;;
31746;SDS011;18319;48.974;8.462;2023-05-07T13:25:17;3.92;;;1.70;;
31746;SDS011;18319;48.974;8.462;2023-05-07T13:27:44;2.47;;;1.60;;
31746;SDS011;18319;48.974;8.462;2023-05-07T13:30:11;2.08;;;1.98;;
31746;SDS011;18319;48.974;8.462;2023-05-07T13:32:39;2.97;;;1.92;;
31746;SDS011;18319;48.974;8.462;2023-05-07T13:35:06;3.85;;;1.73;;
31746;SDS011;18319;48.974;8.462;2023-05-07T13:37:33;2.65;;;1.85;;
31746;SDS011;18319;48.974;8.462;2023-05-07T13:40:00;1.77;;;1.67;;
31746;SDS011;18319;48.974;8.462;2023-05-07T13:42:27;1.80;;;1.70;;
31746;SDS011;18319;48.974;8.462;2023-05-07T13:44:54;1.20;;;1.20;;
31746;SDS011;18319;48.974;8.462;2023-05-07T13:47:21;0.75;;;0.75;;
31746;SDS011;18319;48.974;8.462;2023-05-07T13:49:49;0.70;;;0.52;;
31746;SDS011;18319;48.974;8.462;2023-05-07T13:52:16;0.73;;;0.30;;
31746;SDS011;18319;48.974;8.462;2023-05-07T13:54:43;0.95;;;0.63;;
31746;SDS011;18319;48.974;8.462;2023-05-07T13:57:10;0.63;;;0.50;;
31746;SDS011;18319;48.974;8.462;2023-05-07T13:59:36;0.30;;;0.30;;
31746;SDS011;18319;48.974;8.462;2023-05-07T14:02:03;0.57;;;0.55;;
31746;SDS011;18319;48.974;8.462;2023-05-07T14:04:30;1.25;;;0.40;;
31746;SDS011;18319;48.974;8.462;2023-05-07T14:06:58;0.40;;;0.40;;
31746;SDS011;18319;48.974;8.462;2023-05-07T14:09:25;0.55;;;0.40;;
31746;SDS011;18319;48.974;8.462;2023-05-07T14:11:52;0.50;;;0.50;;
31746;SDS011;18319;48.974;8.462;2023-05-07T14:14:18;0.60;;;0.60;;
31746;SDS011;18319;48.974;8.462;2023-05-07T14:16:45;0.55;;;0.50;;
31746;SDS011;18319;48.974;8.462;2023-05-07T14:19:12;0.75;;;0.55;;
31746;SDS011;18319;48.974;8.462;2023-05-07T14:21:39;0.45;;;0.45;;
31746;SDS011;18319;48.974;8.462;2023-05-07T14:24:07;0.60;;;0.35;;
31746;SDS011;18319;48.974;8.462;2023-05-07T14:26:34;0.60;;;0.60;;
31746;SDS011;18319;48.974;8.462;2023-05-07T14:29:01;0.57;;;0.50;;
31746;SDS011;18319;48.974;8.462;2023-05-07T14:31:28;1.17;;;0.60;;
31746;SDS011;18319;48.974;8.462;2023-05-07T14:33:55;0.75;;;0.60;;
31746;SDS011;18319;48.974;8.462;2023-05-07T14:36:23;0.47;;;0.47;;
31746;SDS011;18319;48.974;8.462;2023-05-07T14:38:51;0.43;;;0.43;;
31746;SDS011;18319;48.974;8.462;2023-05-07T14:41:20;0.60;;;0.57;;
31746;SDS011;18319;48.974;8.462;2023-05-07T14:43:47;0.40;;;0.40;;
31746;SDS011;18319;48.974;8.462;2023-05-07T14:46:16;0.52;;;0.40;;
31746;SDS011;18319;48.974;8.462;2023-05-07T14:48:43;0.90;;;0.63;;
31746;SDS011;18319;48.974;8.462;2023-05-07T14:51:11;0.45;;;0.40;;
31746;SDS011;18319;48.974;8.462;2023-05-07T14:53:38;1.25;;;0.90;;
31746;SDS011;18319;48.974;8.462;2023-05-07T14:56:05;0.60;;;0.60;;
31746;SDS011;18319;48.974;8.462;2023-05-07T14:58:33;0.70;;;0.70;;
31746;SDS011;18319;48.974;8.462;2023-05-07T15:01:00;0.60;;;0.60;;
31746;SDS011;18319;48.974;8.462;2023-05-07T15:03:27;1.92;;;0.57;;
31746;SDS011;18319;48.974;8.462;2023-05-07T15:05:55;0.57;;;0.57;;
31746;SDS011;18319;48.974;8.462;2023-05-07T15:08:21;0.65;;;0.65;;
31746;SDS011;18319;48.974;8.462;2023-05-07T15:10:48;0.75;;;0.75;;